Time;durP1;ratioP1;P1;durP2;ratioP2;P2;SDS_P1;SDS_P2;PMS_P1;PMS_P2;Temp;Humidity;BMP_temperature;BMP_pressure;BME280_temperature;BME280_humidity;BME280_pressure;Samples;Min_cycle;Max_cycle;Signal;HPM_P1;HPM_P2
2021/12/27 00:03:13;;;;;;;203.20;80.20;;;;;;;-11.77;78.23;98456.02;422133;1306;109096;-40
2021/12/27 00:13:17;;;;;;;212.80;87.70;;;;;;;-11.67;78.18;98445.74;422147;1306;97923;-40
2021/12/27 00:23:21;;;;;;;152.90;64.70;;;;;;;-11.68;78.10;98443.08;422292;1309;107608;-38
2021/12/27 00:33:25;;;;;;;97.00;40.10;;;;;;;-11.57;78.49;98443.02;422044;1306;98372;-40
2021/12/27 00:43:29;;;;;;;125.00;48.70;;;;;;;-11.28;78.78;98438.46;422388;1307;111089;-39
2021/12/27 00:53:33;;;;;;;134.70;56.50;;;;;;;-11.03;78.58;98439.79;422340;1306;108992;-40
2021/12/27 01:03:36;;;;;;;157.20;62.60;;;;;;;-11.24;77.67;98440.95;422611;1306;97958;-40
2021/12/27 01:23:45;;;;;;;160.80;62.80;;;;;;;-12.41;76.93;98427.29;422605;1306;97968;-41
2021/12/27 01:33:50;;;;;;;102.80;43.10;;;;;;;-12.46;77.76;98426.27;422326;1306;110052;-39
2021/12/27 01:43:54;;;;;;;84.10;37.70;;;;;;;-11.92;78.48;98426.85;422683;1306;108404;-40
2021/12/27 01:53:59;;;;;;;70.00;33.30;;;;;;;-11.30;78.82;98428.91;422657;1308;97165;-41
2021/12/27 02:04:03;;;;;;;82.20;37.20;;;;;;;-10.90;79.01;98425.14;422246;1307;108938;-39
2021/12/27 02:24:11;;;;;;;83.70;36.10;;;;;;;-10.71;78.48;98410.07;423356;1293;111275;-40
2021/12/27 02:34:16;;;;;;;76.40;35.50;;;;;;;-10.70;78.60;98410.64;422673;1306;108849;-40
2021/12/27 02:44:20;;;;;;;92.30;38.60;;;;;;;-10.70;78.44;98409.29;422450;1306;97933;-40
2021/12/27 02:54:24;;;;;;;99.20;40.30;;;;;;;-10.58;79.25;98405.26;422436;1306;110010;-40
2021/12/27 03:04:33;;;;;;;98.10;38.50;;;;;;;-10.45;78.83;98402.82;422436;1309;97699;-40
2021/12/27 03:14:40;;;;;;;84.70;37.60;;;;;;;-10.38;78.95;98381.66;422441;1306;111261;-39
2021/12/27 03:24:44;;;;;;;92.00;36.60;;;;;;;-10.27;79.29;98372.45;422459;1306;109442;-40
2021/12/27 03:44:55;;;;;;;;;;;;;;;-10.09;79.44;98360.16;422386;1306;109399;-38
2021/12/27 03:55:02;;;;;;;72.20;28.00;;;;;;;-10.22;79.53;98352.55;422399;1306;97936;-39
2021/12/27 04:05:31;;;;;;;71.30;33.30;;;;;;;-10.33;79.39;98349.55;422580;1306;109042;-40
2021/12/27 04:15:35;;;;;;;70.70;33.10;;;;;;;-10.40;79.33;98353.27;422226;1306;109867;-40
2021/12/27 04:25:39;;;;;;;79.40;34.90;;;;;;;-10.41;79.69;98353.36;422492;1306;97547;-40
2021/12/27 04:35:43;;;;;;;73.40;32.80;;;;;;;-10.39;79.80;98344.36;422671;1306;109161;-40
2021/12/27 04:45:49;;;;;;;70.70;31.70;;;;;;;-10.35;80.10;98347.15;422342;1306;97142;-39
2021/12/27 04:55:56;;;;;;;65.90;30.60;;;;;;;-10.31;80.02;98353.36;422646;1306;111106;-40
2021/12/27 05:06:00;;;;;;;72.70;33.10;;;;;;;-10.27;79.94;98352.17;422631;1306;109566;-40
2021/12/27 05:16:05;;;;;;;68.50;30.70;;;;;;;-10.21;79.87;98348.00;422373;1306;97987;-41
2021/12/27 05:26:08;;;;;;;64.00;29.60;;;;;;;-10.18;79.79;98340.48;422545;1306;109006;-39
2021/12/27 05:46:15;;;;;;;69.30;31.20;;;;;;;-10.20;79.66;98341.98;421957;1309;111043;-40
2021/12/27 05:56:19;;;;;;;110.20;43.10;;;;;;;-10.27;79.81;98341.98;422218;1306;108958;-40
2021/12/27 06:06:23;;;;;;;84.40;36.10;;;;;;;-10.31;79.60;98345.30;422453;1306;98107;-40
2021/12/27 06:16:27;;;;;;;73.20;33.60;;;;;;;-10.33;79.71;98353.45;422321;1303;107893;-40
2021/12/27 06:26:30;;;;;;;93.30;38.00;;;;;;;-10.37;79.83;98348.18;421931;1306;98408;-40
2021/12/27 06:36:34;;;;;;;114.30;43.80;;;;;;;-10.36;79.90;98339.02;422277;1306;111765;-40
2021/12/27 06:46:37;;;;;;;118.90;48.60;;;;;;;-10.37;79.91;98338.98;422314;1306;107795;-39
2021/12/27 06:56:41;;;;;;;88.40;41.00;;;;;;;-10.40;80.12;98349.19;422358;1306;97913;-39
2021/12/27 07:06:45;;;;;;;83.20;33.60;;;;;;;-10.39;80.13;98351.02;418289;1306;5388162;-40
2021/12/27 07:16:50;;;;;;;74.20;34.70;;;;;;;-10.32;79.85;98349.84;422355;1306;96759;-39
2021/12/27 07:26:54;;;;;;;78.50;32.20;;;;;;;-10.12;80.31;98343.13;422429;1306;109654;-39
2021/12/27 07:37:06;;;;;;;58.90;28.70;;;;;;;-9.91;80.49;98321.35;421869;1309;109511;-41
2021/12/27 07:47:10;;;;;;;58.60;25.80;;;;;;;-9.64;80.71;98313.09;422048;1306;98579;-40
2021/12/27 07:57:16;;;;;;;60.20;26.10;;;;;;;-9.24;80.87;98312.32;422466;1306;109082;-41
2021/12/27 08:07:19;;;;;;;58.00;28.90;;;;;;;-8.48;80.73;98305.89;422316;1306;97530;-40
2021/12/27 08:17:23;;;;;;;56.30;30.50;;;;;;;-8.12;80.72;98299.52;421800;1306;111259;-40
2021/12/27 08:27:28;;;;;;;54.20;26.30;;;;;;;-6.92;81.29;98305.38;422347;1306;108302;-40
2021/12/27 08:37:32;;;;;;;63.00;28.10;;;;;;;-5.60;80.73;98303.02;422319;1306;97958;-39
2021/12/27 08:47:36;;;;;;;73.40;28.50;;;;;;;-4.91;80.13;98303.66;422407;1306;108782;-39
2021/12/27 08:57:41;;;;;;;75.10;31.60;;;;;;;-4.88;79.71;98298.84;422146;1306;98366;-39
2021/12/27 09:07:45;;;;;;;60.20;22.60;;;;;;;-5.47;79.39;98295.10;421923;1306;98086;-39
2021/12/27 09:17:49;;;;;;;54.90;23.10;;;;;;;-5.99;79.34;98293.77;422540;1306;97924;-40
2021/12/27 09:27:54;;;;;;;64.30;25.10;;;;;;;-6.16;79.63;98271.91;422588;1306;108828;-40
2021/12/27 09:37:58;;;;;;;35.60;18.40;;;;;;;-6.15;79.58;98261.20;422647;1306;97626;-39
2021/12/27 09:48:01;;;;;;;42.50;18.60;;;;;;;-6.26;79.60;98256.44;422334;1306;108920;-39
2021/12/27 10:08:09;;;;;;;75.80;32.20;;;;;;;-5.96;79.85;98249.03;422813;1306;111704;-40
2021/12/27 10:18:15;;;;;;;68.80;26.80;;;;;;;-5.81;79.77;98237.54;422341;1306;108919;-40
2021/12/27 10:38:32;;;;;;;41.90;18.10;;;;;;;-5.42;80.09;98227.16;422905;1306;108937;-39
2021/12/27 10:48:39;;;;;;;44.50;21.20;;;;;;;-5.27;79.90;98208.77;422720;1306;97996;-39
2021/12/27 10:58:45;;;;;;;45.60;19.00;;;;;;;-5.16;79.79;98206.92;422688;1306;110357;-40
2021/12/27 11:08:52;;;;;;;57.70;24.90;;;;;;;-5.18;79.69;98192.20;422833;1306;109184;-38
2021/12/27 11:18:55;;;;;;;40.10;20.10;;;;;;;-5.07;79.68;98181.17;422786;1306;97939;-39
2021/12/27 11:29:19;;;;;;;26.40;14.30;;;;;;;-4.94;79.64;98185.48;422659;1306;109137;-40
2021/12/27 11:39:23;;;;;;;28.70;14.50;;;;;;;-4.87;79.54;98169.66;422220;1306;97971;-41
2021/12/27 11:49:34;;;;;;;30.90;15.50;;;;;;;-4.87;79.24;98155.25;422804;1306;111127;-39
2021/12/27 11:59:42;;;;;;;34.10;15.90;;;;;;;-5.03;79.12;98147.80;422669;1306;108857;-39
2021/12/27 12:09:46;;;;;;;40.30;19.10;;;;;;;-4.94;79.36;98147.61;422628;1306;96749;-40
2021/12/27 12:29:56;;;;;;;48.30;19.90;;;;;;;-5.28;79.39;98136.70;422659;1307;97542;-40
2021/12/27 12:40:01;;;;;;;39.30;17.30;;;;;;;-5.44;79.76;98136.33;422527;1306;111142;-40
2021/12/27 12:50:12;;;;;;;43.60;21.50;;;;;;;-5.51;79.84;98127.16;422521;1306;109044;-40
2021/12/27 13:00:21;;;;;;;65.70;27.60;;;;;;;-5.64;79.91;98114.24;422681;1306;97940;-40
2021/12/27 13:10:27;;;;;;;43.40;19.80;;;;;;;-5.70;80.21;98115.55;422688;1306;109149;-40
2021/12/27 13:20:30;;;;;;;38.90;17.00;;;;;;;-5.67;80.38;98120.39;422664;1306;97539;-40
2021/12/27 13:30:43;;;;;;;44.80;20.40;;;;;;;-5.85;80.58;98117.63;422667;1306;111204;-40
2021/12/27 13:40:47;;;;;;;33.90;17.10;;;;;;;-5.92;80.86;98112.03;422257;1311;108953;-39
2021/12/27 13:50:55;;;;;;;45.30;21.20;;;;;;;-6.03;80.79;98099.70;422736;1311;98473;-39
2021/12/27 14:01:08;;;;;;;47.20;20.50;;;;;;;-6.18;81.09;98102.06;422808;1306;108842;-39
2021/12/27 14:11:14;;;;;;;39.10;19.60;;;;;;;-6.29;81.28;98100.69;422648;1310;97365;-40
2021/12/27 14:21:17;;;;;;;40.20;18.00;;;;;;;-6.33;81.54;98103.59;422517;1307;110531;-39
2021/12/27 14:31:23;;;;;;;59.80;26.70;;;;;;;-6.40;81.55;98109.34;422406;1308;106640;-40
2021/12/27 14:41:27;;;;;;;62.80;29.00;;;;;;;-6.48;81.64;98102.55;422697;1307;97991;-40
2021/12/27 14:51:31;;;;;;;59.40;26.80;;;;;;;-6.62;81.79;98109.28;422689;1307;108835;-40
2021/12/27 15:01:35;;;;;;;43.30;22.50;;;;;;;-6.68;81.89;98125.33;422217;1310;98197;-40
2021/12/27 15:11:39;;;;;;;45.50;20.40;;;;;;;-6.84;82.03;98138.05;418677;1306;5642254;-40
2021/12/27 15:31:47;;;;;;;62.50;26.70;;;;;;;-7.12;82.28;98136.51;422590;1307;97788;-39
2021/12/27 15:42:14;;;;;;;46.70;22.70;;;;;;;-7.16;82.45;98150.05;422589;1308;107594;-39
2021/12/27 15:52:18;;;;;;;59.30;28.80;;;;;;;-7.23;82.45;98159.96;422515;1312;97912;-39
2021/12/27 16:02:22;;;;;;;48.00;22.90;;;;;;;-7.25;82.50;98158.04;422519;1307;111031;-40
2021/12/27 16:12:25;;;;;;;56.30;30.00;;;;;;;-7.25;82.54;98154.46;422686;1307;107845;-40
2021/12/27 16:22:29;;;;;;;48.70;21.70;;;;;;;-7.40;82.46;98164.05;422579;1311;97558;-39
2021/12/27 16:32:36;;;;;;;70.10;31.30;;;;;;;-7.65;82.63;98162.23;422606;1306;107267;-40
2021/12/27 16:42:39;;;;;;;62.00;27.00;;;;;;;-7.72;82.72;98165.09;422692;1307;97641;-39
2021/12/27 16:52:43;;;;;;;55.30;27.20;;;;;;;-7.74;82.72;98167.44;422743;1307;111187;-39
2021/12/27 17:12:55;;;;;;;55.00;25.80;;;;;;;-7.69;82.95;98153.86;422731;1306;97575;-40
2021/12/27 17:22:58;;;;;;;;;;;;;;;-7.68;82.89;98155.82;422687;1310;108983;-41
2021/12/27 17:33:02;;;;;;;60.10;25.40;;;;;;;-7.73;83.05;98138.45;422726;1307;97578;-39
2021/12/27 17:43:06;;;;;;;75.60;29.90;;;;;;;-7.71;83.03;98136.38;422748;1306;111339;-39
2021/12/27 17:53:10;;;;;;;57.80;27.80;;;;;;;-7.70;82.99;98127.23;422532;1306;109433;-40
2021/12/27 18:03:14;;;;;;;56.70;25.50;;;;;;;-7.74;83.29;98125.83;422760;1307;96668;-40
2021/12/27 18:13:18;;;;;;;76.90;32.90;;;;;;;-7.69;83.48;98137.20;422718;1306;109067;-40
2021/12/27 18:23:22;;;;;;;55.30;25.80;;;;;;;-7.62;83.46;98141.06;422557;1308;96778;-40
2021/12/27 18:33:25;;;;;;;109.10;35.40;;;;;;;-7.63;83.39;98141.88;422227;1309;111284;-41
2021/12/27 18:43:29;;;;;;;57.50;24.50;;;;;;;-7.62;83.55;98136.12;422288;1312;108899;-39
2021/12/27 19:03:38;;;;;;;59.50;25.10;;;;;;;-7.48;83.57;98124.65;422767;1306;108905;-41
2021/12/27 19:13:42;;;;;;;70.80;30.00;;;;;;;-7.40;83.79;98119.24;422382;1306;97552;-40
2021/12/27 19:23:47;;;;;;;90.10;36.30;;;;;;;-7.32;83.89;98123.20;422732;1306;110121;-41
2021/12/27 19:33:50;;;;;;;71.90;31.60;;;;;;;-7.23;83.78;98123.48;422377;1305;109025;-40
2021/12/27 19:43:54;;;;;;;77.70;30.60;;;;;;;-7.18;83.97;98108.56;422533;1306;97973;-40
2021/12/27 19:53:59;;;;;;;74.10;30.40;;;;;;;-7.07;83.89;98098.79;422764;1306;107971;-40
2021/12/27 20:04:15;;;;;;;85.20;36.50;;;;;;;-6.93;84.24;98097.42;422430;1306;96747;-41
2021/12/27 20:14:21;;;;;;;88.10;37.20;;;;;;;-6.84;84.06;98095.36;422858;1306;111797;-40
2021/12/27 20:24:25;;;;;;;99.20;42.50;;;;;;;-6.75;84.18;98099.59;422412;1306;108945;-40
2021/12/27 20:34:28;;;;;;;101.60;40.10;;;;;;;-6.61;84.35;98085.50;422595;1306;97932;-39
2021/12/27 21:04:40;;;;;;;101.50;42.40;;;;;;;-6.26;84.43;98068.70;422612;1306;111142;-40
2021/12/27 21:14:43;;;;;;;76.10;32.00;;;;;;;-6.13;84.50;98072.86;422348;1306;107789;-39
2021/12/27 21:24:47;;;;;;;102.10;42.90;;;;;;;-6.07;84.52;98073.25;422711;1306;98596;-40
2021/12/27 21:34:51;;;;;;;80.30;39.10;;;;;;;-5.97;84.45;98070.94;422660;1306;107936;-41
2021/12/27 21:44:54;;;;;;;74.00;33.00;;;;;;;-5.86;84.60;98074.92;422321;1306;97530;-39
2021/12/27 21:54:58;;;;;;;68.80;28.30;;;;;;;-5.80;84.49;98069.11;422694;1306;111343;-40
2021/12/27 22:05:02;;;;;;;71.70;33.60;;;;;;;-5.73;84.57;98072.58;422335;1306;108815;-39
2021/12/27 22:15:10;;;;;;;88.00;39.80;;;;;;;-5.69;84.66;98060.67;422437;1306;96749;-39
2021/12/27 22:25:14;;;;;;;82.60;40.40;;;;;;;-5.66;84.61;98059.75;422617;1306;109090;-40
2021/12/27 22:35:18;;;;;;;91.30;41.20;;;;;;;-5.61;84.64;98047.92;422255;1306;97945;-39
2021/12/27 22:45:23;;;;;;;96.60;41.10;;;;;;;-5.55;84.70;98039.73;422609;1306;110923;-40
2021/12/27 22:55:29;;;;;;;100.10;46.20;;;;;;;-5.53;84.60;98034.85;422643;1306;107812;-41
2021/12/27 23:05:33;;;;;;;88.60;41.90;;;;;;;-5.48;84.74;98024.84;422172;1308;97977;-40
2021/12/27 23:15:40;;;;;;;96.00;42.30;;;;;;;-5.42;84.66;98020.08;418788;1306;5451761;-40
2021/12/27 23:25:44;;;;;;;119.10;43.80;;;;;;;-5.39;84.76;98005.02;422443;1306;97998;-40
2021/12/27 23:35:51;;;;;;;111.10;45.20;;;;;;;-5.38;84.76;98009.21;422806;1306;111212;-40
2021/12/27 23:45:57;;;;;;;105.50;43.70;;;;;;;-5.41;84.83;98016.30;422486;1306;106836;-40
2021/12/27 23:56:01;;;;;;;95.50;45.10;;;;;;;-5.34;84.94;98010.48;422447;1306;98048;-41
